Sneads, FL (32460)

8:09 AM CDT on July 24, 2014 (GMT -0500)
Cypress (KFLMARIA3) Elev 138 ft | 30.67 °N, 85.07 °W | Change Station

Current weather conditions updated 3 seconds ago

Mostly Cloudy
Mostly Cloudy
82.1 °F
Feels Like 93 °F
N
0.0
Wind Variable Wind from SW
Gusts 1.0 mph

Today is forecast to be nearly the same temperature as yesterday.

Today
High -- | Low -- °F
--% Chance of Precip.
Yesterday
High -- | Low -- °F
Precip. -- in
5:52 AM 7:39 PM
Waning Crescent, 5% visible
Pressure 30.03 in
Visibility 4.0 miles
Clouds Overcast 200 ft
Heat Index 93 °F
Dew Point 80 °F
Humidity 95%
Rainfall 0.00 in
Snow Depth Not available.
UV 1 out of 12
Pollen 3.60 out of 12
Air Quality Not available.
Flu Activity Not available.
METAR KMAI 241253Z AUTO 00000KT 4SM BR OVC002 24/24 A3003 RMK AO2 SLP168 T02440244

More Conditions Fewer Conditions

Pressure 30.03 in
Visibility 4.0 miles
Clouds Overcast 200 ft
Heat Index 93 °F
Dew Point 80 °F
Humidity 95%
Rainfall 0.00 in
Snow Depth Not available.
UV 1 out of 12
Pollen 3.60 out of 12
Air Quality Not available.
Flu Activity Not available.
METAR KMAI 241253Z AUTO 00000KT 4SM BR OVC002 24/24 A3003 RMK AO2 SLP168 T02440244

More Conditions Fewer Conditions

10-Day Weather Forecast

Almanac

Astronomy

Jul. 24, 2014 Rise Set
Actual Time 5:52 AM CDT 7:39 PM CDT
Civil Twilight 5:25 AM CDT 8:06 PM CDT
Nautical Twilight 4:53 AM CDT 8:38 PM CDT
Astronomical Twilight 4:19 AM CDT 9:12 PM CDT
Moon 3:58 AM CDT 5:56 PM CDT
Length of Visible Light 14h 40m
Length of Day
13h 47m
Tomorrow will be 1m 13s shorter.
Waning Crescent, 5% of the Moon is Illuminated
Today
Waning Crescent
Jul 26
New
Aug 3
First Quarter
Aug 10
Full
Aug 17
Last Quarter

Today's Extremes

State Highs State Lows

Community

WunderPhotos

Upload Photos

1,736,993 photos uploaded!

Nearby

Snow Depth

Station Depth Elevation
No new snow has been reported.

Earthquake Activity

City Distance Mag. Time & Date
No recent earthquake activity has been reported nearby.
Minimum magnitude displayed is 2.5.

Coastal Water Temperatures

Place Temperature
No Stations Reporting

Nearby Weather Stations

Station Location Temp. Heat Index Dew Point Humidity Wind Precip. Elev Updated Type
Cypress, Marianna, FL 82.1 °F 93 °F 80 °F 95% SW  at  0.0 mph 0.00 in / hr 138 ft 8:09 AM CDT Rapid Fire
Blountstown, FL 76.4 °F 76 °F 75 °F 95% ESE  at  0.0 mph 0.00 in / hr 76 ft 8:09 AM CDT Rapid Fire

Show More Stations Show Fewer Stations